»·PEaware :: NKS787 KLAS-KSAN

NKS787 :: KLAS-KSAN

FLIGHT INFORMATION

Flight Status: Arrived
Operator:
Spirit Airlines
More flights by this operator :: More flights under this callsign
Pilot: Sanjiv Singh (4490)
Aircraft: AIRBUS A320
(A320)
More flights by this aircraft type
Origin: KLAS McCarran Intl
United States
Destination: KSAN San Diego Intl-Lindbergh
United States
More flights between these airports :: More routes between these airports
Route: BOACH6 TNP MOMAR LUCKI1
File this flight plan on PilotEdge
Remarks:
Altitude:
(Current/Filed)
24,000ft
Speed:
(Current/Filed)
430kts
Departed: 28-Nov-16 09:43 AM
Arrived: 28-Nov-16 10:27 AM
Distance/Time
Traveled:
225nm/0:44
Distance/Time
To Go:
Arrived

Flight Plot

Page will automatically refresh every two minutes.

Flight plan parsing failed; only flown route is shown


Map Options




Map Legend


Flown Route
Filed Route
Departure Airport
Arrival Airport
Navaid (VOR, NDB)
Fix

Horizontal Profiles

Position Reports

Time Latitude Longitude Heading Altitude Ground
Speed
28-Nov-16 08:47 36.081118 -115.138177 310 2150ft 0kts
28-Nov-16 08:48 36.081118 -115.138177 310 2150ft 0kts
28-Nov-16 08:49 36.081118 -115.138177 310 2150ft 0kts
28-Nov-16 08:50 36.081118 -115.138177 310 2150ft 0kts
28-Nov-16 08:51 36.081118 -115.138177 310 2150ft 0kts
28-Nov-16 08:52 36.081118 -115.138177 310 2150ft 0kts
28-Nov-16 08:53 36.081118 -115.138177 310 2150ft 0kts
28-Nov-16 08:54 36.081118 -115.138177 310 2150ft 0kts
28-Nov-16 08:55 36.081118 -115.138177 310 2150ft 0kts
28-Nov-16 08:56 36.081118 -115.138177 310 2150ft 0kts
28-Nov-16 09:00 36.081303 -115.139849 142 2149ft 0kts
28-Nov-16 09:01 36.081303 -115.139849 142 2149ft 0kts
28-Nov-16 09:02 36.081303 -115.139849 142 2149ft 0kts
28-Nov-16 09:03 36.081303 -115.139849 142 2149ft 0kts
28-Nov-16 09:04 36.081303 -115.139849 142 2149ft 0kts
28-Nov-16 09:05 36.081303 -115.139849 142 2149ft 0kts
28-Nov-16 09:06 36.081303 -115.139849 142 2149ft 0kts
28-Nov-16 09:07 36.081303 -115.139849 142 2149ft 0kts
28-Nov-16 09:08 36.081303 -115.139849 142 2149ft 0kts
28-Nov-16 09:09 36.081303 -115.139849 142 2149ft 0kts
28-Nov-16 09:10 36.081303 -115.139849 142 2149ft 0kts
28-Nov-16 09:11 36.081303 -115.139849 142 2149ft 0kts
28-Nov-16 09:15 36.081303 -115.139849 142 2149ft 0kts
28-Nov-16 09:16 36.081303 -115.139849 142 2149ft 0kts
28-Nov-16 09:17 36.081303 -115.139849 142 2149ft 0kts
28-Nov-16 09:18 36.081303 -115.139849 142 2149ft 0kts
28-Nov-16 09:19 36.081303 -115.139849 142 2149ft 0kts
28-Nov-16 09:20 36.081303 -115.139849 142 2149ft 0kts
28-Nov-16 09:21 36.081303 -115.139849 142 2149ft 0kts
28-Nov-16 09:22 36.081303 -115.139849 142 2149ft 0kts
28-Nov-16 09:23 36.081303 -115.139849 142 2149ft 0kts
28-Nov-16 09:24 36.081303 -115.139849 142 2149ft 0kts
28-Nov-16 09:25 36.081303 -115.139849 142 2149ft 0kts
28-Nov-16 09:26 36.081303 -115.139849 142 2149ft 0kts
28-Nov-16 09:27 36.081945 -115.140459 142 2149ft 0kts
28-Nov-16 09:28 36.081945 -115.140459 142 2149ft 0kts
28-Nov-16 09:29 36.081945 -115.140459 142 2149ft 0kts
28-Nov-16 09:30 36.081945 -115.140459 142 2149ft 0kts
28-Nov-16 09:31 36.081608 -115.140617 244 2149ft 10kts
28-Nov-16 09:32 36.078784 -115.141576 176 2149ft 10kts
28-Nov-16 09:33 36.078254 -115.137376 89 2149ft 17kts
28-Nov-16 09:34 36.078256 -115.130544 89 2149ft 22kts
28-Nov-16 09:35 36.078277 -115.122923 101 2149ft 19kts
28-Nov-16 09:36 36.076406 -115.131454 269 2149ft 123kts
28-Nov-16 09:37 36.076291 -115.189392 270 3585ft 211kts
28-Nov-16 09:38 36.050135 -115.263060 203 5649ft 279kts
28-Nov-16 09:39 35.978977 -115.297422 199 7032ft 290kts
28-Nov-16 09:40 35.900949 -115.309510 188 9771ft 297kts
28-Nov-16 09:41 35.810809 -115.309691 176 10562ft 373kts
28-Nov-16 09:42 35.701246 -115.297103 177 11806ft 425kts
28-Nov-16 09:43 35.583950 -115.298140 187 14026ft 443kts
28-Nov-16 09:44 35.461127 -115.303068 188 16547ft 451kts
28-Nov-16 09:45 35.339412 -115.307881 189 18538ft 458kts
28-Nov-16 09:46 35.216640 -115.312739 188 19890ft 470kts
28-Nov-16 09:47 35.089711 -115.317702 188 21158ft 481kts
28-Nov-16 09:48 34.962294 -115.322681 188 22413ft 492kts
28-Nov-16 09:49 34.825798 -115.327992 188 23692ft 503kts
28-Nov-16 09:50 34.695275 -115.368523 207 23980ft 487kts
28-Nov-16 09:51 34.568443 -115.423743 207 23982ft 487kts
28-Nov-16 09:52 34.441217 -115.479177 207 24035ft 488kts
28-Nov-16 09:53 34.317865 -115.541271 226 24044ft 461kts
28-Nov-16 09:54 34.222858 -115.645438 230 24032ft 456kts
28-Nov-16 09:55 34.134793 -115.744804 228 24038ft 459kts
28-Nov-16 09:56 34.014451 -115.798549 201 24040ft 496kts
28-Nov-16 09:57 33.882254 -115.837589 201 23968ft 496kts
28-Nov-16 09:58 33.751205 -115.875851 201 23964ft 497kts
28-Nov-16 09:59 33.616494 -115.915120 201 23966ft 497kts
28-Nov-16 10:00 33.499791 -115.978885 238 23970ft 454kts
28-Nov-16 10:01 33.428103 -116.094550 243 22953ft 419kts
28-Nov-16 10:02 33.362922 -116.206296 243 21094ft 404kts
28-Nov-16 10:03 33.272501 -116.287324 215 18679ft 423kts
28-Nov-16 10:04 33.169836 -116.348099 214 16015ft 408kts
28-Nov-16 10:05 33.070166 -116.406355 214 13582ft 396kts
28-Nov-16 10:06 32.979579 -116.470959 228 10974ft 369kts
28-Nov-16 10:07 32.908442 -116.541850 229 10263ft 317kts
28-Nov-16 10:08 32.848899 -116.601591 230 9534ft 278kts
28-Nov-16 10:09 32.793308 -116.657568 230 8331ft 256kts
28-Nov-16 10:10 32.760496 -116.707634 249 7285ft 230kts
28-Nov-16 10:11 32.728150 -116.774854 248 6007ft 236kts
28-Nov-16 10:12 32.700660 -116.839643 259 5637ft 221kts
28-Nov-16 10:13 32.680413 -116.906163 258 4615ft 205kts
28-Nov-16 10:14 32.680034 -116.966141 289 3743ft 175kts
28-Nov-16 10:15 32.692004 -117.017891 288 2975ft 163kts
28-Nov-16 10:16 32.703077 -117.064031 286 2299ft 148kts
28-Nov-16 10:17 32.712592 -117.102868 284 1597ft 135kts
28-Nov-16 10:18 32.721989 -117.142002 284 795ft 135kts
28-Nov-16 10:19 32.732026 -117.183252 282 26ft 133kts
28-Nov-16 10:20 32.735008 -117.198556 250 25ft 9kts
28-Nov-16 10:21 32.734920 -117.198846 250 25ft 0kts
28-Nov-16 10:22 32.734247 -117.199608 198 25ft 9kts
28-Nov-16 10:23 32.733054 -117.200483 278 25ft 1kts
28-Nov-16 10:24 32.733078 -117.200662 279 25ft 0kts

Navigation Log

Ident Type Via Name
Flight plan parsing failed, navigation log unavailable